createdAt,value
2022-08-14T00:00:22.074Z,8.44
2022-08-14T00:01:39.602Z,8.09
2022-08-14T00:02:42.635Z,7.99
2022-08-14T00:03:46.112Z,7.83
2022-08-14T00:04:47.755Z,7.61
2022-08-14T00:05:58.103Z,8.23
2022-08-14T00:07:00.246Z,8.25
2022-08-14T00:08:02.101Z,8.35
2022-08-14T00:09:04.221Z,7.89
2022-08-14T00:10:52.199Z,8.23
2022-08-14T00:11:32.388Z,7.89
2022-08-14T00:12:39.585Z,7.76
2022-08-14T00:13:43.125Z,7.98
2022-08-14T00:14:55.273Z,8.51
2022-08-14T00:15:59.729Z,7.86
2022-08-14T00:17:01.806Z,8.91
2022-08-14T00:18:06.800Z,8.05
2022-08-14T00:19:19.819Z,7.68
2022-08-14T00:20:30.871Z,7.73
2022-08-14T00:21:38.410Z,8.66
2022-08-14T00:22:56.698Z,8.04
2022-08-14T00:24:01.759Z,8.17
2022-08-14T00:25:05.727Z,7.93
2022-08-14T00:26:08.410Z,8.09
2022-08-14T00:27:23.297Z,7.52
2022-08-14T00:28:29.064Z,8.32
2022-08-14T00:29:40.439Z,8.34
2022-08-14T00:30:48.467Z,8.54
2022-08-14T00:31:56.350Z,8.67
2022-08-14T00:32:58.430Z,8.10
2022-08-14T00:34:36.990Z,8.34
2022-08-14T00:35:43.039Z,8.47
2022-08-14T00:36:49.377Z,8.80
2022-08-14T00:37:51.991Z,8.46
2022-08-14T00:38:54.369Z,8.43
2022-08-14T00:39:56.201Z,8.29
2022-08-14T00:40:58.034Z,8.78
2022-08-14T00:41:59.993Z,8.20
2022-08-14T00:43:03.390Z,8.40
2022-08-14T00:44:05.106Z,8.09
2022-08-14T00:45:11.577Z,8.10
2022-08-14T00:46:32.317Z,8.10
2022-08-14T00:47:42.971Z,8.17
2022-08-14T00:48:48.988Z,8.26
2022-08-14T00:49:58.533Z,8.39
2022-08-14T00:51:00.807Z,8.91
2022-08-14T00:52:02.853Z,8.82
2022-08-14T00:53:05.981Z,8.86
2022-08-14T00:54:21.185Z,8.23
2022-08-14T00:55:25.661Z,8.16
2022-08-14T00:56:31.221Z,7.76
2022-08-14T00:57:35.970Z,8.51
2022-08-14T00:58:45.226Z,8.64
2022-08-14T00:59:51.365Z,8.40
2022-08-14T01:00:57.478Z,7.99
2022-08-14T01:02:01.223Z,8.28
2022-08-14T01:03:06.027Z,9.01
2022-08-14T01:04:08.215Z,8.86
2022-08-14T01:05:41.759Z,9.22
2022-08-14T01:06:55.227Z,8.65
2022-08-14T01:08:00.720Z,9.00
2022-08-14T01:09:05.358Z,8.76
2022-08-14T01:10:07.686Z,9.39
2022-08-14T01:11:19.108Z,9.90
2022-08-14T01:12:27.019Z,9.96
2022-08-14T01:13:42.711Z,9.44
2022-08-14T01:14:45.020Z,9.65
2022-08-14T01:15:57.727Z,9.67
2022-08-14T01:17:04.062Z,9.68
2022-08-14T01:18:24.387Z,9.11
2022-08-14T01:19:48.117Z,9.38
2022-08-14T01:21:06.392Z,9.25
2022-08-14T01:22:12.357Z,8.99
2022-08-14T01:23:15.626Z,9.32
2022-08-14T01:24:24.843Z,9.50
2022-08-14T01:25:32.776Z,9.04
2022-08-14T01:26:38.915Z,9.56
2022-08-14T01:27:54.597Z,9.45
2022-08-14T01:28:59.918Z,9.68
2022-08-14T01:30:04.575Z,9.87
2022-08-14T01:31:14.359Z,8.76
2022-08-14T01:32:23.153Z,10.25
2022-08-14T01:33:29.139Z,9.73
2022-08-14T01:35:17.179Z,10.19
2022-08-14T01:36:03.792Z,9.56
2022-08-14T01:37:10.873Z,9.30
2022-08-14T01:38:15.140Z,9.60
2022-08-14T01:39:18.915Z,9.91
2022-08-14T01:40:25.788Z,9.64
2022-08-14T01:41:37.379Z,9.65
2022-08-14T01:42:42.475Z,9.02
2022-08-14T01:44:00.941Z,8.85
2022-08-14T01:45:05.661Z,8.95
2022-08-14T01:46:11.482Z,9.32
2022-08-14T01:47:27.338Z,9.71
2022-08-14T01:48:37.524Z,10.00
2022-08-14T01:49:46.505Z,10.33
2022-08-14T01:51:02.855Z,9.91
2022-08-14T01:52:08.995Z,9.71
2022-08-14T01:53:25.229Z,9.55
2022-08-14T01:54:37.987Z,9.40
2022-08-14T01:55:40.716Z,10.48
2022-08-14T01:56:44.631Z,9.94
2022-08-14T01:58:00.460Z,9.82
2022-08-14T01:59:21.775Z,10.43
2022-08-14T02:00:23.973Z,9.77
2022-08-14T02:01:30.259Z,9.21
2022-08-14T02:02:36.865Z,9.95
2022-08-14T02:03:41.105Z,9.52
2022-08-14T02:04:57.326Z,8.29
2022-08-14T02:06:03.999Z,8.68
2022-08-14T02:07:27.179Z,8.60
2022-08-14T02:08:53.347Z,9.18
2022-08-14T02:09:57.041Z,8.16
2022-08-14T02:11:22.202Z,8.59
2022-08-14T02:12:26.635Z,8.15
2022-08-14T02:13:31.279Z,8.28
2022-08-14T02:14:37.496Z,8.08
2022-08-14T02:15:40.820Z,8.33
2022-08-14T02:16:53.042Z,7.43
2022-08-14T02:17:56.668Z,7.85
2022-08-14T02:19:01.786Z,7.90
2022-08-14T02:20:04.938Z,7.57
2022-08-14T02:21:07.178Z,7.10
2022-08-14T02:22:08.892Z,7.80
2022-08-14T02:23:12.126Z,7.83
2022-08-14T02:24:39.670Z,8.07
2022-08-14T02:25:36.902Z,7.94
2022-08-14T02:28:18.479Z,7.86
2022-08-14T02:28:22.113Z,7.65
2022-08-14T02:30:00.210Z,7.85
2022-08-14T02:30:52.921Z,7.87
2022-08-14T02:31:57.473Z,7.73
2022-08-14T02:33:01.221Z,6.82
2022-08-14T02:34:29.192Z,7.70
2022-08-14T02:35:32.741Z,8.05
2022-08-14T02:37:02.933Z,7.77
2022-08-14T02:37:56.452Z,8.31
2022-08-14T02:38:58.553Z,8.43
2022-08-14T02:40:00.502Z,8.80
2022-08-14T02:41:13.142Z,7.92
2022-08-14T02:42:23.383Z,8.72
2022-08-14T02:43:36.755Z,8.27
2022-08-14T02:44:49.384Z,7.90
2022-08-14T02:45:51.304Z,8.01
2022-08-14T02:47:01.586Z,7.78
2022-08-14T02:48:06.980Z,7.66
2022-08-14T02:49:12.538Z,7.59
2022-08-14T02:50:16.848Z,7.87
2022-08-14T02:51:19.279Z,8.05
2022-08-14T02:52:26.841Z,8.28
2022-08-14T02:53:46.730Z,8.25
2022-08-14T02:54:48.468Z,8.43
2022-08-14T02:55:50.313Z,8.50
2022-08-14T02:57:16.281Z,8.11
2022-08-14T02:58:30.931Z,7.73
2022-08-14T02:59:35.643Z,8.57
2022-08-14T03:00:40.035Z,7.77
2022-08-14T03:01:50.600Z,8.22
2022-08-14T03:02:59.031Z,8.62
2022-08-14T03:04:02.078Z,8.23
2022-08-14T03:05:04.221Z,8.27
2022-08-14T03:06:08.951Z,9.17
2022-08-14T03:07:10.793Z,8.22
2022-08-14T03:08:19.966Z,8.61
2022-08-14T03:09:22.599Z,8.16
2022-08-14T03:10:26.732Z,8.11
2022-08-14T03:11:34.727Z,8.25
2022-08-14T03:12:37.433Z,8.45
2022-08-14T03:13:44.863Z,8.77
2022-08-14T03:14:49.981Z,7.50
2022-08-14T03:15:55.528Z,7.62
2022-08-14T03:16:58.149Z,8.07
2022-08-14T03:18:01.161Z,7.60
2022-08-14T03:19:07.110Z,8.39
2022-08-14T03:20:11.840Z,7.72
2022-08-14T03:21:17.236Z,7.74
2022-08-14T03:22:18.929Z,7.72
2022-08-14T03:23:21.261Z,7.65
2022-08-14T03:24:23.420Z,7.91
2022-08-14T03:25:25.581Z,7.52
2022-08-14T03:26:30.209Z,7.92
2022-08-14T03:27:35.478Z,8.33
2022-08-14T03:28:51.778Z,8.51
2022-08-14T03:29:54.264Z,8.96
2022-08-14T03:30:57.546Z,8.27
2022-08-14T03:32:01.840Z,8.02
2022-08-14T03:33:06.690Z,8.36
2022-08-14T03:34:10.331Z,7.76
2022-08-14T03:35:37.432Z,8.30
2022-08-14T03:37:37.445Z,8.23
2022-08-14T03:39:10.929Z,8.70
2022-08-14T03:39:32.098Z,8.61
2022-08-14T03:40:33.854Z,8.46
2022-08-14T03:41:35.573Z,8.67
2022-08-14T03:42:40.417Z,9.24
2022-08-14T03:43:44.207Z,8.46
2022-08-14T03:45:19.807Z,8.63
2022-08-14T03:46:39.220Z,8.12
2022-08-14T03:47:55.778Z,8.71
2022-08-14T03:48:54.239Z,8.93
2022-08-14T03:49:56.125Z,9.90
2022-08-14T03:51:01.517Z,9.40
2022-08-14T03:52:18.201Z,8.56
2022-08-14T03:53:27.045Z,9.16
2022-08-14T03:54:29.747Z,8.79
2022-08-14T03:55:31.434Z,9.56
2022-08-14T03:56:37.046Z,9.34
2022-08-14T03:57:42.679Z,9.10
2022-08-14T03:58:48.298Z,9.40
2022-08-14T03:59:51.300Z,9.35
2022-08-14T04:00:53.088Z,9.63
2022-08-14T04:02:01.236Z,8.94
2022-08-14T04:03:06.611Z,9.31
2022-08-14T04:04:09.117Z,9.00
2022-08-14T04:05:12.861Z,9.18
2022-08-14T04:06:21.161Z,9.75
2022-08-14T04:07:23.012Z,9.36
2022-08-14T04:08:30.446Z,9.99
2022-08-14T04:09:34.094Z,10.17
2022-08-14T04:10:36.463Z,9.51
2022-08-14T04:11:38.745Z,8.88
2022-08-14T04:12:41.506Z,10.04
2022-08-14T04:13:54.340Z,9.99
2022-08-14T04:14:57.332Z,10.17
2022-08-14T04:16:01.955Z,10.21
2022-08-14T04:17:10.201Z,9.56
2022-08-14T04:18:13.062Z,10.93
2022-08-14T04:19:23.867Z,9.98
2022-08-14T04:20:26.220Z,9.16
2022-08-14T04:21:29.439Z,9.33
2022-08-14T04:22:33.728Z,10.02
2022-08-14T04:23:36.877Z,10.52
2022-08-14T04:24:39.387Z,9.47
2022-08-14T04:25:41.088Z,9.97
2022-08-14T04:26:44.741Z,10.37
2022-08-14T04:28:01.627Z,10.27
2022-08-14T04:29:14.103Z,9.58
2022-08-14T04:30:29.702Z,11.09
2022-08-14T04:32:58.485Z,10.33
2022-08-14T04:33:05.338Z,10.68
2022-08-14T04:34:16.884Z,10.14
2022-08-14T04:35:23.575Z,10.34
2022-08-14T04:36:25.440Z,9.65
2022-08-14T04:37:46.432Z,10.82
2022-08-14T04:39:13.891Z,10.49
2022-08-14T04:40:35.826Z,10.97
2022-08-14T04:42:01.023Z,10.75
2022-08-14T04:43:21.839Z,11.16
2022-08-14T04:44:36.037Z,12.15
2022-08-14T04:45:42.816Z,10.73
2022-08-14T04:47:04.562Z,11.47
2022-08-14T04:48:13.483Z,10.81
2022-08-14T04:49:15.369Z,10.77
2022-08-14T04:50:17.105Z,10.27
2022-08-14T04:51:21.221Z,10.62
2022-08-14T04:52:25.678Z,11.19
2022-08-14T04:53:34.936Z,10.95
2022-08-14T04:54:37.568Z,10.87
2022-08-14T04:55:51.409Z,11.66
2022-08-14T04:56:57.850Z,11.15
2022-08-14T04:57:59.746Z,11.26
2022-08-14T04:59:10.100Z,10.63
2022-08-14T05:00:16.258Z,11.10
2022-08-14T05:01:20.249Z,10.71
2022-08-14T05:02:24.477Z,10.49
2022-08-14T05:03:30.205Z,10.51
2022-08-14T05:04:32.531Z,10.36
2022-08-14T05:05:34.710Z,10.40
2022-08-14T05:06:39.782Z,10.34
2022-08-14T05:07:54.288Z,10.88
2022-08-14T05:09:04.252Z,11.51
2022-08-14T05:10:12.832Z,11.40
2022-08-14T05:11:15.639Z,11.79
2022-08-14T05:13:12.841Z,11.34
2022-08-14T05:14:08.280Z,11.10
2022-08-14T05:15:00.955Z,10.99
2022-08-14T05:16:05.687Z,11.55
2022-08-14T05:17:08.556Z,11.17
2022-08-14T05:19:17.021Z,12.39
2022-08-14T05:19:44.246Z,11.16
2022-08-14T05:21:54.598Z,11.12
2022-08-14T05:22:18.930Z,11.77
2022-08-14T05:23:24.418Z,11.83
2022-08-14T05:24:26.057Z,11.20
2022-08-14T05:25:31.064Z,11.50
2022-08-14T05:26:36.204Z,12.25
2022-08-14T05:27:38.230Z,11.40
2022-08-14T05:28:44.960Z,11.79
2022-08-14T05:29:47.608Z,11.52
2022-08-14T05:30:52.658Z,11.87
2022-08-14T05:31:57.379Z,12.19
2022-08-14T05:33:01.336Z,12.02
2022-08-14T05:34:03.065Z,12.19
2022-08-14T05:35:05.502Z,11.69
2022-08-14T05:36:16.883Z,12.18
2022-08-14T05:37:19.056Z,11.31
2022-08-14T05:38:31.114Z,11.44
2022-08-14T05:39:34.288Z,12.23
2022-08-14T05:40:37.372Z,12.10
2022-08-14T05:41:51.082Z,12.61
2022-08-14T05:42:55.739Z,12.83
2022-08-14T05:43:58.780Z,11.69
2022-08-14T05:45:00.447Z,11.84
2022-08-14T05:46:02.357Z,12.76
2022-08-14T05:47:07.539Z,12.05
2022-08-14T05:48:32.979Z,12.50
2022-08-14T05:49:36.206Z,12.26
2022-08-14T05:50:40.495Z,12.86
2022-08-14T05:51:46.811Z,12.91
2022-08-14T05:52:51.265Z,13.18
2022-08-14T05:54:00.062Z,12.27
2022-08-14T05:55:12.141Z,13.06
2022-08-14T05:56:14.317Z,14.08
2022-08-14T05:57:16.030Z,13.88
2022-08-14T05:58:18.115Z,13.86
2022-08-14T05:59:30.121Z,13.13
2022-08-14T06:00:42.117Z,12.27
2022-08-14T06:01:44.194Z,12.41
2022-08-14T06:02:48.469Z,12.68
2022-08-14T06:03:50.764Z,12.48
2022-08-14T06:04:58.858Z,12.67
2022-08-14T06:06:00.653Z,12.23
2022-08-14T06:07:03.651Z,11.59
2022-08-14T06:08:08.761Z,11.45
2022-08-14T06:09:23.637Z,11.54
2022-08-14T06:10:30.708Z,12.52
2022-08-14T06:11:32.708Z,12.80
2022-08-14T06:12:56.533Z,11.41
2022-08-14T06:13:56.764Z,11.61
2022-08-14T06:14:59.481Z,11.60
2022-08-14T06:16:01.277Z,11.72
2022-08-14T06:17:03.187Z,11.57
2022-08-14T06:18:05.081Z,12.05
2022-08-14T06:19:11.243Z,12.04
2022-08-14T06:20:14.873Z,12.56
2022-08-14T06:21:17.586Z,11.96
2022-08-14T06:22:20.475Z,11.47
2022-08-14T06:23:23.320Z,11.43
2022-08-14T06:24:25.056Z,11.77
2022-08-14T06:25:28.199Z,11.36
2022-08-14T06:26:30.347Z,11.06
2022-08-14T06:27:40.248Z,11.16
2022-08-14T06:28:45.541Z,11.22
2022-08-14T06:29:47.425Z,11.19
2022-08-14T06:30:50.315Z,11.57
2022-08-14T06:32:00.145Z,10.89
2022-08-14T06:33:06.362Z,11.76
2022-08-14T06:35:04.822Z,11.19
2022-08-14T06:35:30.321Z,11.71
2022-08-14T06:36:32.334Z,11.36
2022-08-14T06:37:50.747Z,11.32
2022-08-14T06:38:53.436Z,12.36
2022-08-14T06:39:56.069Z,11.48
2022-08-14T06:40:58.173Z,11.16
2022-08-14T06:42:00.309Z,12.39
2022-08-14T06:43:09.250Z,11.02
2022-08-14T06:44:11.454Z,10.78
2022-08-14T06:45:14.037Z,10.93
2022-08-14T06:46:23.175Z,11.33
2022-08-14T06:47:43.939Z,11.38
2022-08-14T06:48:45.993Z,10.54
2022-08-14T06:49:48.658Z,10.92
2022-08-14T06:50:59.803Z,10.45
2022-08-14T06:52:02.398Z,10.95
2022-08-14T06:53:04.176Z,10.96
2022-08-14T06:54:08.378Z,10.88
2022-08-14T06:55:12.673Z,11.47
2022-08-14T06:56:14.888Z,10.87
2022-08-14T06:57:16.607Z,10.46
2022-08-14T06:58:28.463Z,11.07
2022-08-14T06:59:31.639Z,10.45
2022-08-14T07:00:35.545Z,10.70
2022-08-14T07:01:56.664Z,11.15
2022-08-14T07:03:19.443Z,13.01
2022-08-14T07:04:41.853Z,12.09
2022-08-14T07:05:58.159Z,11.45
2022-08-14T07:07:00.313Z,12.29
2022-08-14T07:08:02.183Z,11.10
2022-08-14T07:09:05.059Z,11.66
2022-08-14T07:10:16.825Z,12.77
2022-08-14T07:11:19.823Z,12.98
2022-08-14T07:12:54.872Z,13.02
2022-08-14T07:13:43.313Z,11.70
2022-08-14T07:14:45.005Z,11.46
2022-08-14T07:15:50.599Z,11.58
2022-08-14T07:16:57.490Z,11.64
2022-08-14T07:17:59.874Z,12.80
2022-08-14T07:19:02.235Z,12.35
2022-08-14T07:20:05.212Z,12.20
2022-08-14T07:21:09.782Z,12.53
2022-08-14T07:22:17.464Z,12.91
2022-08-14T07:23:25.968Z,12.61
2022-08-14T07:24:31.598Z,11.89
2022-08-14T07:25:35.244Z,12.50
2022-08-14T07:26:41.042Z,12.28
2022-08-14T07:27:43.755Z,11.29
2022-08-14T07:28:45.421Z,11.73
2022-08-14T07:29:47.096Z,11.32
2022-08-14T07:30:57.588Z,11.99
2022-08-14T07:32:07.134Z,11.47
2022-08-14T07:33:13.512Z,12.17
2022-08-14T07:34:35.968Z,11.79
2022-08-14T07:35:57.462Z,11.34
2022-08-14T07:37:01.390Z,11.50
2022-08-14T07:38:04.682Z,10.91
2022-08-14T07:39:12.349Z,11.45
2022-08-14T07:40:15.436Z,10.88
2022-08-14T07:41:31.190Z,10.79
2022-08-14T07:42:37.077Z,10.91
2022-08-14T07:43:40.391Z,10.56
2022-08-14T07:44:46.579Z,10.27
2022-08-14T07:45:50.971Z,10.84
2022-08-14T07:46:55.800Z,11.61
2022-08-14T07:47:58.051Z,11.69
2022-08-14T07:49:00.672Z,11.68
2022-08-14T07:50:12.445Z,10.86
2022-08-14T07:51:20.081Z,11.49
2022-08-14T07:52:21.931Z,11.49
2022-08-14T07:53:36.477Z,11.52
2022-08-14T07:54:38.889Z,11.09
2022-08-14T07:55:42.894Z,11.03
2022-08-14T07:56:48.770Z,12.14
2022-08-14T07:57:52.671Z,11.48
2022-08-14T07:58:59.560Z,11.79
2022-08-14T08:00:01.640Z,11.93
2022-08-14T08:01:14.164Z,11.41
2022-08-14T08:02:21.938Z,11.46
2022-08-14T08:03:28.130Z,10.89
2022-08-14T08:04:34.175Z,11.50
2022-08-14T08:05:38.096Z,11.08
2022-08-14T08:06:40.457Z,11.32
2022-08-14T08:07:45.406Z,11.19
2022-08-14T08:09:01.245Z,10.78
2022-08-14T08:11:01.407Z,12.00
2022-08-14T08:11:57.355Z,12.05
2022-08-14T08:12:59.074Z,11.74
2022-08-14T08:14:10.837Z,12.11
2022-08-14T08:15:19.440Z,12.65
2022-08-14T08:16:23.956Z,12.00
2022-08-14T08:17:28.309Z,11.70
2022-08-14T08:18:36.794Z,11.49
2022-08-14T08:19:41.267Z,12.30
2022-08-14T08:20:52.151Z,11.18
2022-08-14T08:21:55.296Z,11.41
2022-08-14T08:23:00.385Z,11.12
2022-08-14T08:24:04.143Z,10.61
2022-08-14T08:25:13.602Z,11.45
2022-08-14T08:26:15.962Z,11.39
2022-08-14T08:27:22.586Z,11.23
2022-08-14T08:28:31.413Z,11.53
2022-08-14T08:29:36.035Z,12.34
2022-08-14T08:30:49.354Z,11.40
2022-08-14T08:31:52.456Z,11.58
2022-08-14T08:32:56.352Z,12.17
2022-08-14T08:33:58.031Z,12.36
2022-08-14T08:34:59.880Z,11.34
2022-08-14T08:36:06.359Z,11.91
2022-08-14T08:37:09.683Z,12.10
2022-08-14T08:39:17.839Z,11.56
2022-08-14T08:40:03.002Z,11.40
2022-08-14T08:41:10.877Z,11.46
2022-08-14T08:42:13.213Z,11.01
2022-08-14T08:43:23.660Z,11.08
2022-08-14T08:44:31.815Z,11.17
2022-08-14T08:45:37.996Z,11.55
2022-08-14T08:46:40.106Z,11.95
2022-08-14T08:47:46.600Z,11.88
2022-08-14T08:50:00.048Z,12.06
2022-08-14T08:51:03.577Z,11.66
2022-08-14T08:52:06.865Z,12.36
2022-08-14T08:53:17.370Z,12.23
2022-08-14T08:54:19.851Z,12.04
2022-08-14T08:55:32.716Z,11.51
2022-08-14T08:56:39.926Z,11.37
2022-08-14T08:57:42.996Z,11.21
2022-08-14T08:58:44.645Z,11.42
2022-08-14T08:59:46.298Z,12.16
2022-08-14T09:00:58.778Z,11.55
2022-08-14T09:02:10.372Z,12.04
2022-08-14T09:03:15.721Z,13.10
2022-08-14T09:04:19.365Z,12.32
2022-08-14T09:05:23.246Z,12.70
2022-08-14T09:07:01.115Z,13.32
2022-08-14T09:07:46.556Z,12.50
2022-08-14T09:08:50.837Z,12.97
2022-08-14T09:10:00.030Z,12.05
2022-08-14T09:11:19.817Z,12.88
2022-08-14T09:12:23.147Z,12.00
2022-08-14T09:13:26.302Z,11.79
2022-08-14T09:14:31.814Z,12.96
2022-08-14T09:15:42.328Z,12.35
2022-08-14T09:16:48.245Z,11.52
2022-08-14T09:17:52.760Z,12.02
2022-08-14T09:18:57.508Z,12.27
2022-08-14T09:20:01.971Z,12.90
2022-08-14T09:21:07.067Z,12.08
2022-08-14T09:22:35.138Z,11.45
2022-08-14T09:23:34.804Z,11.80
2022-08-14T09:24:52.116Z,11.42
2022-08-14T09:25:59.690Z,12.14
2022-08-14T09:27:03.394Z,12.43
2022-08-14T09:28:09.367Z,11.88
2022-08-14T09:29:12.587Z,12.54
2022-08-14T09:30:32.479Z,12.35
2022-08-14T09:31:43.017Z,12.95
2022-08-14T09:33:11.157Z,12.69
2022-08-14T09:34:26.941Z,12.18
2022-08-14T09:36:10.629Z,12.69
2022-08-14T09:37:55.400Z,12.30
2022-08-14T09:39:34.415Z,11.83
2022-08-14T09:40:48.894Z,13.13
2022-08-14T09:42:33.312Z,12.76
2022-08-14T09:43:55.086Z,12.84
2022-08-14T09:45:15.341Z,13.12
2022-08-14T09:46:21.483Z,13.72
2022-08-14T09:47:51.840Z,13.37
2022-08-14T09:49:01.607Z,13.07
2022-08-14T09:50:03.537Z,13.37
2022-08-14T09:51:21.013Z,12.49
2022-08-14T09:52:34.209Z,12.62
2022-08-14T09:54:23.049Z,12.30
2022-08-14T09:55:28.138Z,12.89
2022-08-14T09:56:31.200Z,12.28
2022-08-14T09:57:33.418Z,12.60
2022-08-14T09:58:41.218Z,12.84
2022-08-14T09:59:50.435Z,14.01
2022-08-14T10:01:00.460Z,12.83
2022-08-14T10:02:02.322Z,12.64
2022-08-14T10:03:06.112Z,13.47
2022-08-14T10:04:34.965Z,12.91
2022-08-14T10:05:40.871Z,13.30
2022-08-14T10:06:46.826Z,13.16
2022-08-14T10:07:53.432Z,12.17
2022-08-14T10:09:01.903Z,12.41
2022-08-14T10:10:23.504Z,12.40
2022-08-14T10:11:34.949Z,13.32
2022-08-14T10:12:46.408Z,12.96
2022-08-14T10:13:54.234Z,12.44
2022-08-14T10:14:57.869Z,13.04
2022-08-14T10:16:01.765Z,11.60
2022-08-14T10:17:08.264Z,12.77
2022-08-14T10:18:17.572Z,12.66
2022-08-14T10:19:25.544Z,12.54
2022-08-14T10:20:42.978Z,12.18
2022-08-14T10:23:11.802Z,12.21
2022-08-14T10:23:33.683Z,11.95
2022-08-14T10:24:46.325Z,12.24
2022-08-14T10:25:58.980Z,12.41
2022-08-14T10:27:02.325Z,12.08
2022-08-14T10:28:04.898Z,12.83
2022-08-14T10:29:18.224Z,12.75
2022-08-14T10:30:34.921Z,11.60
2022-08-14T10:31:45.019Z,11.61
2022-08-14T10:32:51.234Z,11.98
2022-08-14T10:34:04.062Z,12.94
2022-08-14T10:35:16.802Z,12.48
2022-08-14T10:36:47.694Z,13.07
2022-08-14T10:37:52.213Z,12.83
2022-08-14T10:38:59.976Z,13.65
2022-08-14T10:40:10.453Z,14.05
2022-08-14T10:41:15.243Z,12.79
2022-08-14T10:42:20.941Z,13.56
2022-08-14T10:43:31.724Z,13.10
2022-08-14T10:44:46.012Z,13.38
2022-08-14T10:46:21.467Z,12.14
2022-08-14T10:48:02.624Z,13.08
2022-08-14T10:49:04.429Z,12.16
2022-08-14T10:50:07.753Z,11.52
2022-08-14T10:51:25.090Z,11.84
2022-08-14T10:52:35.646Z,11.60
2022-08-14T10:53:39.275Z,11.56
2022-08-14T10:54:47.560Z,11.83
2022-08-14T10:55:58.781Z,11.66
2022-08-14T10:57:20.309Z,11.89
2022-08-14T10:58:34.204Z,12.16
2022-08-14T10:59:55.009Z,11.55
2022-08-14T11:01:01.018Z,11.76
2022-08-14T11:02:03.472Z,10.33
2022-08-14T11:03:26.457Z,10.63
2022-08-14T11:04:30.759Z,10.54
2022-08-14T11:05:54.950Z,10.55
2022-08-14T11:06:59.216Z,10.94
2022-08-14T11:08:01.106Z,11.14
2022-08-14T11:09:12.494Z,11.59
2022-08-14T11:10:18.681Z,11.46
2022-08-14T11:11:22.814Z,11.73
2022-08-14T11:12:33.732Z,11.40
2022-08-14T11:13:50.614Z,12.55
2022-08-14T11:15:02.397Z,11.42
2022-08-14T11:16:04.760Z,11.69
2022-08-14T11:17:09.420Z,11.16
2022-08-14T11:18:20.619Z,11.17
2022-08-14T11:19:36.263Z,10.75
2022-08-14T11:20:39.400Z,10.11
2022-08-14T11:21:45.687Z,10.15
2022-08-14T11:22:57.891Z,10.29
2022-08-14T11:24:02.719Z,10.80
2022-08-14T11:25:44.002Z,10.33
2022-08-14T11:26:51.978Z,10.00
2022-08-14T11:27:56.755Z,10.12
2022-08-14T11:29:01.836Z,9.42
2022-08-14T11:30:49.333Z,9.55
2022-08-14T11:31:35.502Z,9.61
2022-08-14T11:32:44.575Z,9.65
2022-08-14T11:33:57.603Z,10.22
2022-08-14T11:35:02.625Z,9.85
2022-08-14T11:36:17.876Z,9.82
2022-08-14T11:37:33.860Z,9.84
2022-08-14T11:38:44.908Z,9.21
2022-08-14T11:39:48.580Z,8.85
2022-08-14T11:40:52.989Z,9.36
2022-08-14T11:41:58.014Z,9.48
2022-08-14T11:43:03.154Z,9.00
2022-08-14T11:44:05.349Z,9.08
2022-08-14T11:45:23.459Z,9.71
2022-08-14T11:46:30.292Z,9.75
2022-08-14T11:48:10.800Z,9.37
2022-08-14T11:49:06.067Z,9.58
2022-08-14T11:50:33.623Z,9.87
2022-08-14T11:51:53.502Z,9.05
2022-08-14T11:52:57.304Z,9.17
2022-08-14T11:54:06.405Z,9.07
2022-08-14T11:55:13.802Z,9.00
2022-08-14T11:56:15.740Z,9.69
2022-08-14T11:57:19.946Z,9.09
2022-08-14T11:58:28.519Z,9.80
2022-08-14T11:59:33.447Z,9.32
2022-08-14T12:00:49.734Z,9.06
2022-08-14T12:01:51.434Z,9.27
2022-08-14T12:03:02.984Z,8.92
2022-08-14T12:04:32.291Z,9.31
2022-08-14T12:05:39.882Z,9.36
2022-08-14T12:07:01.104Z,9.48
2022-08-14T12:08:11.128Z,9.01
2022-08-14T12:09:34.931Z,9.17
2022-08-14T12:10:42.667Z,9.90
2022-08-14T12:11:47.094Z,9.90
2022-08-14T12:12:54.762Z,9.63
2022-08-14T12:14:08.650Z,9.27
2022-08-14T12:15:17.105Z,9.31
2022-08-14T12:16:22.857Z,8.91
2022-08-14T12:17:28.485Z,9.66
2022-08-14T12:18:40.473Z,9.23
2022-08-14T12:19:50.633Z,9.34
2022-08-14T12:20:59.361Z,9.15
2022-08-14T12:22:03.090Z,9.56
2022-08-14T12:23:22.409Z,9.67
2022-08-14T12:24:35.875Z,8.98
2022-08-14T12:25:38.855Z,9.08
2022-08-14T12:26:41.386Z,9.43
2022-08-14T12:27:54.905Z,10.03
2022-08-14T12:29:13.210Z,9.56
2022-08-14T12:30:26.746Z,9.17
2022-08-14T12:31:36.326Z,9.53
2022-08-14T12:32:47.279Z,9.67
2022-08-14T12:34:00.358Z,9.30
2022-08-14T12:35:02.047Z,8.86
2022-08-14T12:36:09.897Z,8.92
2022-08-14T12:37:11.830Z,9.17
2022-08-14T12:38:19.294Z,8.88
2022-08-14T12:39:23.760Z,8.85
2022-08-14T12:40:28.756Z,9.28
2022-08-14T12:41:37.212Z,8.68
2022-08-14T12:42:52.575Z,8.54
2022-08-14T12:43:59.810Z,9.13
2022-08-14T12:45:03.966Z,9.12
2022-08-14T12:46:06.027Z,9.82
2022-08-14T12:47:17.728Z,9.26
2022-08-14T12:48:21.816Z,9.49
2022-08-14T12:49:34.330Z,8.71
2022-08-14T12:50:40.576Z,10.00
2022-08-14T12:51:57.146Z,9.76
2022-08-14T12:53:13.999Z,9.85
2022-08-14T12:54:28.286Z,9.74
2022-08-14T12:56:17.736Z,9.42
2022-08-14T12:57:09.269Z,10.13
2022-08-14T12:58:35.232Z,9.91
2022-08-14T12:59:37.309Z,9.21
2022-08-14T13:01:14.371Z,9.34
2022-08-14T13:02:27.021Z,9.22
2022-08-14T13:03:30.002Z,9.15
2022-08-14T13:04:35.423Z,9.01
2022-08-14T13:05:37.726Z,9.12
2022-08-14T13:06:45.118Z,9.63
2022-08-14T13:07:53.216Z,9.33
2022-08-14T13:09:00.150Z,8.94
2022-08-14T13:10:12.930Z,9.35
2022-08-14T13:11:34.616Z,9.32
2022-08-14T13:12:56.604Z,9.32
2022-08-14T13:14:02.451Z,8.54
2022-08-14T13:15:12.701Z,8.72
2022-08-14T13:16:20.492Z,8.84
2022-08-14T13:17:53.403Z,8.86
2022-08-14T13:19:01.811Z,9.00
2022-08-14T13:20:10.112Z,8.87
2022-08-14T13:21:13.994Z,8.91
2022-08-14T13:22:29.043Z,9.06
2022-08-14T13:23:37.508Z,9.33
2022-08-14T13:24:40.632Z,9.01
2022-08-14T13:25:55.614Z,8.71
2022-08-14T13:27:00.459Z,9.20
2022-08-14T13:28:04.194Z,8.68
2022-08-14T13:29:18.374Z,8.99
2022-08-14T13:30:27.426Z,9.10
2022-08-14T13:31:34.236Z,8.76
2022-08-14T13:32:39.373Z,8.43
2022-08-14T13:33:41.869Z,8.49
2022-08-14T13:34:47.513Z,9.07
2022-08-14T13:35:49.764Z,8.54
2022-08-14T13:36:59.246Z,9.10
2022-08-14T13:38:05.613Z,8.43
2022-08-14T13:39:09.220Z,9.34
2022-08-14T13:40:14.611Z,8.51
2022-08-14T13:41:31.448Z,8.40
2022-08-14T13:42:33.745Z,8.54
2022-08-14T13:43:49.103Z,9.18
2022-08-14T13:45:02.558Z,9.04
2022-08-14T13:46:06.103Z,9.47
2022-08-14T13:47:08.866Z,9.32
2022-08-14T13:48:27.670Z,8.84
2022-08-14T13:49:33.943Z,8.57
2022-08-14T13:50:39.389Z,9.07
2022-08-14T13:51:49.362Z,9.49
2022-08-14T13:52:59.574Z,9.52
2022-08-14T13:54:10.754Z,9.93
2022-08-14T13:55:15.853Z,9.75
2022-08-14T13:56:35.968Z,9.88
2022-08-14T13:57:49.510Z,9.93
2022-08-14T13:58:52.436Z,9.40
2022-08-14T13:59:55.958Z,9.79
2022-08-14T14:00:58.248Z,9.94
2022-08-14T14:02:07.971Z,9.71
2022-08-14T14:03:10.387Z,10.04
2022-08-14T14:04:19.844Z,10.32
2022-08-14T14:05:23.154Z,9.79
2022-08-14T14:06:25.326Z,9.92
2022-08-14T14:07:32.067Z,10.10
2022-08-14T14:08:47.057Z,9.56
2022-08-14T14:09:52.567Z,9.37
2022-08-14T14:10:56.219Z,9.85
2022-08-14T14:12:01.122Z,10.25
2022-08-14T14:13:05.925Z,9.14
2022-08-14T14:14:10.036Z,9.11
2022-08-14T14:15:48.433Z,9.09
2022-08-14T14:16:53.380Z,8.94
2022-08-14T14:17:57.257Z,8.82
2022-08-14T14:19:08.851Z,9.07
2022-08-14T14:20:15.313Z,9.89
2022-08-14T14:21:36.600Z,9.57
2022-08-14T14:23:01.659Z,8.61
2022-08-14T14:24:06.121Z,9.83
2022-08-14T14:25:08.605Z,9.80
2022-08-14T14:26:20.041Z,9.57
2022-08-14T14:27:40.324Z,8.99
2022-08-14T14:28:51.565Z,8.96
2022-08-14T14:30:00.599Z,8.85
2022-08-14T14:31:06.196Z,9.68
2022-08-14T14:32:11.366Z,9.58
2022-08-14T14:33:46.748Z,9.94
2022-08-14T14:34:54.480Z,9.56
2022-08-14T14:35:59.357Z,8.76
2022-08-14T14:37:04.944Z,9.38
2022-08-14T14:38:13.172Z,9.24
2022-08-14T14:39:23.400Z,9.25
2022-08-14T14:40:53.055Z,9.70
2022-08-14T14:41:56.199Z,9.14
2022-08-14T14:43:03.637Z,9.05
2022-08-14T14:44:15.710Z,8.98
2022-08-14T14:45:20.447Z,8.87
2022-08-14T14:46:36.686Z,9.39
2022-08-14T14:47:39.473Z,9.18
2022-08-14T14:48:46.463Z,9.94
2022-08-14T14:49:56.633Z,9.73
2022-08-14T14:51:01.336Z,9.76
2022-08-14T14:52:05.341Z,9.31
2022-08-14T14:53:13.009Z,10.17
2022-08-14T14:54:17.930Z,9.76
2022-08-14T14:55:20.029Z,9.94
2022-08-14T14:56:50.490Z,10.35
2022-08-14T14:57:45.604Z,9.90
2022-08-14T14:58:54.959Z,9.70
2022-08-14T14:59:57.275Z,9.46
2022-08-14T15:01:08.587Z,9.72
2022-08-14T15:02:26.692Z,9.47
2022-08-14T15:03:30.375Z,10.00